Pilot Point, Texas
Current Conditions -  °F | °C
As of 1:53 AM on Saturday 25 Oct 2014 (Local Time) from KDTO Reporting Station
Clear Clear  
Wind Chill: 19°   Ceiling: Unl
Heat Index: 19°   Visibility: 10mi
Dew Point: 15°   Wind: 6mph
Humidity: 78%   Direction: 150°SSE
Pressure: 30.09"   Gusts: NA
Location:  33.4°N, 96.96°W
Report Text: KDTO 250653Z AUTO 15005KT 10SM CLR 19/15 A3009 RMK AO2 SLP182 T01890150
Loading
Personal Weather Stations






























Interactive Weather Map
Tropical Storm Tracking
New forecast layout! Learn more

10-Day Weather Forecast

Advertisements
Track Severe Weather on mobile